sensor_id;sensor_type;location;lat;lon;timestamp;P1;durP1;ratioP1;P2;durP2;ratioP2
7737;SDS011;29398;45.328;5.558;2022-07-04T00:00:24;2.15;;;1.83;;
7737;SDS011;29398;45.328;5.558;2022-07-04T00:01:25;3.22;;;1.80;;
7737;SDS011;29398;45.328;5.558;2022-07-04T00:02:27;1.98;;;1.85;;
7737;SDS011;29398;45.328;5.558;2022-07-04T00:03:28;2.08;;;1.58;;
7737;SDS011;29398;45.328;5.558;2022-07-04T00:04:30;3.08;;;1.50;;
7737;SDS011;29398;45.328;5.558;2022-07-04T00:05:32;2.72;;;1.70;;
7737;SDS011;29398;45.328;5.558;2022-07-04T00:06:34;3.55;;;2.03;;
7737;SDS011;29398;45.328;5.558;2022-07-04T00:07:36;2.92;;;1.80;;
7737;SDS011;29398;45.328;5.558;2022-07-04T00:08:38;3.03;;;1.63;;
7737;SDS011;29398;45.328;5.558;2022-07-04T00:09:39;1.73;;;1.58;;
7737;SDS011;29398;45.328;5.558;2022-07-04T00:10:41;2.30;;;1.67;;
7737;SDS011;29398;45.328;5.558;2022-07-04T00:11:42;2.30;;;1.70;;
7737;SDS011;29398;45.328;5.558;2022-07-04T00:12:44;2.67;;;1.50;;
7737;SDS011;29398;45.328;5.558;2022-07-04T00:13:45;2.33;;;1.50;;
7737;SDS011;29398;45.328;5.558;2022-07-04T00:14:49;2.88;;;1.30;;
7737;SDS011;29398;45.328;5.558;2022-07-04T00:15:50;1.63;;;1.40;;
7737;SDS011;29398;45.328;5.558;2022-07-04T00:16:52;2.13;;;1.50;;
7737;SDS011;29398;45.328;5.558;2022-07-04T00:20:55;2.75;;;1.40;;
7737;SDS011;29398;45.328;5.558;2022-07-04T00:23:00;3.05;;;1.70;;
7737;SDS011;29398;45.328;5.558;2022-07-04T00:24:01;2.70;;;1.52;;
7737;SDS011;29398;45.328;5.558;2022-07-04T00:25:03;2.05;;;1.85;;
7737;SDS011;29398;45.328;5.558;2022-07-04T00:26:05;1.77;;;1.45;;
7737;SDS011;29398;45.328;5.558;2022-07-04T00:27:07;3.15;;;1.70;;
7737;SDS011;29398;45.328;5.558;2022-07-04T00:28:08;2.70;;;2.20;;
7737;SDS011;29398;45.328;5.558;2022-07-04T00:29:10;2.30;;;1.60;;
7737;SDS011;29398;45.328;5.558;2022-07-04T00:30:14;1.73;;;1.63;;
7737;SDS011;29398;45.328;5.558;2022-07-04T00:31:15;1.63;;;1.52;;
7737;SDS011;29398;45.328;5.558;2022-07-04T00:32:17;1.80;;;1.52;;
7737;SDS011;29398;45.328;5.558;2022-07-04T00:33:18;2.25;;;1.50;;
7737;SDS011;29398;45.328;5.558;2022-07-04T00:34:21;2.75;;;1.90;;
7737;SDS011;29398;45.328;5.558;2022-07-04T00:35:22;3.22;;;1.90;;
7737;SDS011;29398;45.328;5.558;2022-07-04T00:36:24;3.83;;;1.80;;
7737;SDS011;29398;45.328;5.558;2022-07-04T00:37:25;1.77;;;1.50;;
7737;SDS011;29398;45.328;5.558;2022-07-04T00:38:27;3.55;;;1.95;;
7737;SDS011;29398;45.328;5.558;2022-07-04T00:39:30;2.17;;;1.58;;
7737;SDS011;29398;45.328;5.558;2022-07-04T00:40:31;1.98;;;1.65;;
7737;SDS011;29398;45.328;5.558;2022-07-04T00:41:33;1.95;;;1.75;;
7737;SDS011;29398;45.328;5.558;2022-07-04T00:42:34;2.17;;;1.70;;
7737;SDS011;29398;45.328;5.558;2022-07-04T00:43:36;2.97;;;1.60;;
7737;SDS011;29398;45.328;5.558;2022-07-04T00:44:37;4.53;;;1.55;;
7737;SDS011;29398;45.328;5.558;2022-07-04T00:45:40;2.17;;;1.48;;
7737;SDS011;29398;45.328;5.558;2022-07-04T00:46:41;3.00;;;1.75;;
7737;SDS011;29398;45.328;5.558;2022-07-04T00:47:44;2.95;;;1.73;;
7737;SDS011;29398;45.328;5.558;2022-07-04T00:48:45;1.80;;;1.58;;
7737;SDS011;29398;45.328;5.558;2022-07-04T00:49:47;1.50;;;1.40;;
7737;SDS011;29398;45.328;5.558;2022-07-04T00:50:48;2.28;;;1.73;;
7737;SDS011;29398;45.328;5.558;2022-07-04T00:51:50;4.90;;;1.80;;
7737;SDS011;29398;45.328;5.558;2022-07-04T00:52:52;3.08;;;1.70;;
7737;SDS011;29398;45.328;5.558;2022-07-04T00:53:55;3.17;;;1.60;;
7737;SDS011;29398;45.328;5.558;2022-07-04T00:54:57;3.42;;;1.70;;
7737;SDS011;29398;45.328;5.558;2022-07-04T00:56:00;2.33;;;1.70;;
7737;SDS011;29398;45.328;5.558;2022-07-04T00:57:02;2.78;;;1.73;;
7737;SDS011;29398;45.328;5.558;2022-07-04T00:58:04;2.63;;;1.63;;
7737;SDS011;29398;45.328;5.558;2022-07-04T00:59:06;1.85;;;1.63;;
7737;SDS011;29398;45.328;5.558;2022-07-04T01:00:08;1.92;;;1.60;;
7737;SDS011;29398;45.328;5.558;2022-07-04T01:01:12;2.00;;;1.50;;
7737;SDS011;29398;45.328;5.558;2022-07-04T01:02:13;3.13;;;1.42;;
7737;SDS011;29398;45.328;5.558;2022-07-04T01:03:15;2.47;;;1.70;;
7737;SDS011;29398;45.328;5.558;2022-07-04T01:04:16;1.90;;;1.55;;
7737;SDS011;29398;45.328;5.558;2022-07-04T01:05:19;2.70;;;1.60;;
7737;SDS011;29398;45.328;5.558;2022-07-04T01:06:20;3.05;;;1.77;;
7737;SDS011;29398;45.328;5.558;2022-07-04T01:07:22;2.40;;;1.30;;
7737;SDS011;29398;45.328;5.558;2022-07-04T01:08:23;4.13;;;1.65;;
7737;SDS011;29398;45.328;5.558;2022-07-04T01:09:25;1.73;;;1.60;;
7737;SDS011;29398;45.328;5.558;2022-07-04T01:10:26;2.05;;;1.70;;
7737;SDS011;29398;45.328;5.558;2022-07-04T01:11:28;1.75;;;1.65;;
7737;SDS011;29398;45.328;5.558;2022-07-04T01:12:29;1.70;;;1.60;;
7737;SDS011;29398;45.328;5.558;2022-07-04T01:13:31;2.90;;;1.75;;
7737;SDS011;29398;45.328;5.558;2022-07-04T01:14:36;2.28;;;1.50;;
7737;SDS011;29398;45.328;5.558;2022-07-04T01:15:38;3.55;;;1.70;;
7737;SDS011;29398;45.328;5.558;2022-07-04T01:16:41;1.67;;;1.58;;
7737;SDS011;29398;45.328;5.558;2022-07-04T01:17:43;1.73;;;1.60;;
7737;SDS011;29398;45.328;5.558;2022-07-04T01:18:44;1.65;;;1.55;;
7737;SDS011;29398;45.328;5.558;2022-07-04T01:19:46;3.17;;;1.80;;
7737;SDS011;29398;45.328;5.558;2022-07-04T01:20:49;1.80;;;1.70;;
7737;SDS011;29398;45.328;5.558;2022-07-04T01:21:51;2.53;;;1.65;;
7737;SDS011;29398;45.328;5.558;2022-07-04T01:22:52;2.47;;;1.50;;
7737;SDS011;29398;45.328;5.558;2022-07-04T01:23:54;2.05;;;1.38;;
7737;SDS011;29398;45.328;5.558;2022-07-04T01:24:55;3.63;;;1.40;;
7737;SDS011;29398;45.328;5.558;2022-07-04T01:25:57;3.63;;;1.58;;
7737;SDS011;29398;45.328;5.558;2022-07-04T01:26:59;1.55;;;1.45;;
7737;SDS011;29398;45.328;5.558;2022-07-04T01:28:01;2.63;;;1.55;;
7737;SDS011;29398;45.328;5.558;2022-07-04T01:29:05;3.60;;;1.50;;
7737;SDS011;29398;45.328;5.558;2022-07-04T01:30:07;2.58;;;1.38;;
7737;SDS011;29398;45.328;5.558;2022-07-04T01:31:09;3.65;;;1.65;;
7737;SDS011;29398;45.328;5.558;2022-07-04T01:32:11;3.00;;;1.70;;
7737;SDS011;29398;45.328;5.558;2022-07-04T01:33:12;2.40;;;1.27;;
7737;SDS011;29398;45.328;5.558;2022-07-04T01:34:15;1.73;;;1.35;;
7737;SDS011;29398;45.328;5.558;2022-07-04T01:35:16;3.67;;;1.50;;
7737;SDS011;29398;45.328;5.558;2022-07-04T01:36:19;2.78;;;1.30;;
7737;SDS011;29398;45.328;5.558;2022-07-04T01:37:20;1.80;;;1.13;;
7737;SDS011;29398;45.328;5.558;2022-07-04T01:38:22;5.03;;;1.13;;
7737;SDS011;29398;45.328;5.558;2022-07-04T01:39:23;3.00;;;1.13;;
7737;SDS011;29398;45.328;5.558;2022-07-04T01:40:25;2.70;;;1.42;;
7737;SDS011;29398;45.328;5.558;2022-07-04T01:41:32;1.25;;;1.15;;
7737;SDS011;29398;45.328;5.558;2022-07-04T01:42:35;1.33;;;1.23;;
7737;SDS011;29398;45.328;5.558;2022-07-04T01:43:36;2.00;;;1.35;;
7737;SDS011;29398;45.328;5.558;2022-07-04T01:44:38;1.45;;;1.10;;
7737;SDS011;29398;45.328;5.558;2022-07-04T01:45:39;3.20;;;1.42;;
7737;SDS011;29398;45.328;5.558;2022-07-04T01:46:41;2.72;;;1.30;;
7737;SDS011;29398;45.328;5.558;2022-07-04T01:47:42;1.90;;;1.20;;
7737;SDS011;29398;45.328;5.558;2022-07-04T01:48:44;2.65;;;1.30;;
7737;SDS011;29398;45.328;5.558;2022-07-04T01:49:45;3.85;;;1.45;;
7737;SDS011;29398;45.328;5.558;2022-07-04T01:50:47;1.30;;;1.10;;
7737;SDS011;29398;45.328;5.558;2022-07-04T01:51:50;3.95;;;1.33;;
7737;SDS011;29398;45.328;5.558;2022-07-04T01:52:52;1.40;;;1.00;;
7737;SDS011;29398;45.328;5.558;2022-07-04T01:53:53;1.33;;;1.23;;
7737;SDS011;29398;45.328;5.558;2022-07-04T01:54:55;5.15;;;1.20;;
7737;SDS011;29398;45.328;5.558;2022-07-04T01:55:56;2.70;;;0.90;;
7737;SDS011;29398;45.328;5.558;2022-07-04T01:56:58;1.17;;;1.00;;
7737;SDS011;29398;45.328;5.558;2022-07-04T01:58:00;1.80;;;0.80;;
7737;SDS011;29398;45.328;5.558;2022-07-04T01:59:02;1.58;;;0.80;;
7737;SDS011;29398;45.328;5.558;2022-07-04T02:00:04;1.25;;;0.80;;
7737;SDS011;29398;45.328;5.558;2022-07-04T02:01:25;2.58;;;1.20;;
7737;SDS011;29398;45.328;5.558;2022-07-04T02:02:32;1.25;;;0.80;;
7737;SDS011;29398;45.328;5.558;2022-07-04T02:03:33;1.15;;;0.75;;
7737;SDS011;29398;45.328;5.558;2022-07-04T02:04:35;0.77;;;0.73;;
7737;SDS011;29398;45.328;5.558;2022-07-04T02:05:36;2.90;;;0.82;;
7737;SDS011;29398;45.328;5.558;2022-07-04T02:06:38;2.50;;;0.85;;
7737;SDS011;29398;45.328;5.558;2022-07-04T02:07:42;2.08;;;0.75;;
7737;SDS011;29398;45.328;5.558;2022-07-04T02:08:43;0.88;;;0.70;;
7737;SDS011;29398;45.328;5.558;2022-07-04T02:10:02;1.35;;;0.90;;
7737;SDS011;29398;45.328;5.558;2022-07-04T02:11:05;1.10;;;0.82;;
7737;SDS011;29398;45.328;5.558;2022-07-04T02:12:06;4.68;;;0.80;;
7737;SDS011;29398;45.328;5.558;2022-07-04T02:13:26;2.55;;;0.80;;
7737;SDS011;29398;45.328;5.558;2022-07-04T02:14:28;1.30;;;0.80;;
7737;SDS011;29398;45.328;5.558;2022-07-04T02:15:30;3.72;;;1.10;;
7737;SDS011;29398;45.328;5.558;2022-07-04T02:16:32;2.47;;;0.90;;
7737;SDS011;29398;45.328;5.558;2022-07-04T02:17:33;1.95;;;0.90;;
7737;SDS011;29398;45.328;5.558;2022-07-04T02:18:35;1.63;;;1.10;;
7737;SDS011;29398;45.328;5.558;2022-07-04T02:19:36;2.15;;;0.90;;
7737;SDS011;29398;45.328;5.558;2022-07-04T02:20:39;1.35;;;1.10;;
7737;SDS011;29398;45.328;5.558;2022-07-04T02:21:40;1.58;;;1.02;;
7737;SDS011;29398;45.328;5.558;2022-07-04T02:22:43;2.15;;;0.90;;
7737;SDS011;29398;45.328;5.558;2022-07-04T02:23:45;4.50;;;1.00;;
7737;SDS011;29398;45.328;5.558;2022-07-04T02:24:46;2.20;;;0.93;;
7737;SDS011;29398;45.328;5.558;2022-07-04T02:25:48;1.85;;;0.75;;
7737;SDS011;29398;45.328;5.558;2022-07-04T02:26:49;1.55;;;1.02;;
7737;SDS011;29398;45.328;5.558;2022-07-04T02:27:52;1.25;;;0.82;;
7737;SDS011;29398;45.328;5.558;2022-07-04T02:28:53;2.75;;;0.95;;
7737;SDS011;29398;45.328;5.558;2022-07-04T02:29:55;1.58;;;1.00;;
7737;SDS011;29398;45.328;5.558;2022-07-04T02:30:56;2.83;;;1.30;;
7737;SDS011;29398;45.328;5.558;2022-07-04T02:31:57;1.45;;;1.20;;
7737;SDS011;29398;45.328;5.558;2022-07-04T02:32:59;1.20;;;1.10;;
7737;SDS011;29398;45.328;5.558;2022-07-04T02:34:00;2.80;;;1.20;;
7737;SDS011;29398;45.328;5.558;2022-07-04T02:35:02;1.63;;;1.13;;
7737;SDS011;29398;45.328;5.558;2022-07-04T02:36:04;1.88;;;1.10;;
7737;SDS011;29398;45.328;5.558;2022-07-04T02:37:05;2.67;;;1.13;;
7737;SDS011;29398;45.328;5.558;2022-07-04T02:38:09;1.20;;;1.08;;
7737;SDS011;29398;45.328;5.558;2022-07-04T02:39:10;3.92;;;1.20;;
7737;SDS011;29398;45.328;5.558;2022-07-04T02:40:12;1.10;;;1.00;;
7737;SDS011;29398;45.328;5.558;2022-07-04T02:41:13;5.45;;;1.73;;
7737;SDS011;29398;45.328;5.558;2022-07-04T02:42:15;4.55;;;1.63;;
7737;SDS011;29398;45.328;5.558;2022-07-04T02:43:16;2.67;;;1.30;;
7737;SDS011;29398;45.328;5.558;2022-07-04T02:44:18;3.33;;;1.40;;
7737;SDS011;29398;45.328;5.558;2022-07-04T02:45:20;1.90;;;1.50;;
7737;SDS011;29398;45.328;5.558;2022-07-04T02:46:22;5.18;;;1.70;;
7737;SDS011;29398;45.328;5.558;2022-07-04T02:47:23;4.57;;;1.70;;
7737;SDS011;29398;45.328;5.558;2022-07-04T02:48:25;1.75;;;1.52;;
7737;SDS011;29398;45.328;5.558;2022-07-04T02:49:26;1.60;;;1.40;;
7737;SDS011;29398;45.328;5.558;2022-07-04T02:50:28;2.80;;;1.60;;
7737;SDS011;29398;45.328;5.558;2022-07-04T02:51:30;3.35;;;1.50;;
7737;SDS011;29398;45.328;5.558;2022-07-04T02:52:32;4.65;;;1.60;;
7737;SDS011;29398;45.328;5.558;2022-07-04T02:53:34;2.42;;;1.35;;
7737;SDS011;29398;45.328;5.558;2022-07-04T02:54:36;2.33;;;1.50;;
7737;SDS011;29398;45.328;5.558;2022-07-04T02:55:37;3.35;;;1.80;;
7737;SDS011;29398;45.328;5.558;2022-07-04T02:56:39;1.95;;;1.40;;
7737;SDS011;29398;45.328;5.558;2022-07-04T02:57:40;2.00;;;1.40;;
7737;SDS011;29398;45.328;5.558;2022-07-04T02:58:42;2.33;;;1.55;;
7737;SDS011;29398;45.328;5.558;2022-07-04T02:59:43;2.10;;;1.30;;
7737;SDS011;29398;45.328;5.558;2022-07-04T03:00:45;1.50;;;1.40;;
7737;SDS011;29398;45.328;5.558;2022-07-04T03:01:46;1.77;;;1.48;;
7737;SDS011;29398;45.328;5.558;2022-07-04T03:02:48;1.75;;;1.27;;
7737;SDS011;29398;45.328;5.558;2022-07-04T03:03:50;1.35;;;1.23;;
7737;SDS011;29398;45.328;5.558;2022-07-04T03:04:52;1.45;;;1.05;;
7737;SDS011;29398;45.328;5.558;2022-07-04T03:05:53;2.45;;;1.40;;
7737;SDS011;29398;45.328;5.558;2022-07-04T03:06:55;2.10;;;1.23;;
7737;SDS011;29398;45.328;5.558;2022-07-04T03:07:56;2.20;;;1.30;;
7737;SDS011;29398;45.328;5.558;2022-07-04T03:08:59;3.17;;;1.50;;
7737;SDS011;29398;45.328;5.558;2022-07-04T03:10:00;2.55;;;1.40;;
7737;SDS011;29398;45.328;5.558;2022-07-04T03:11:02;1.75;;;1.10;;
7737;SDS011;29398;45.328;5.558;2022-07-04T03:12:04;1.10;;;1.02;;
7737;SDS011;29398;45.328;5.558;2022-07-04T03:13:07;1.80;;;1.20;;
7737;SDS011;29398;45.328;5.558;2022-07-04T03:14:08;1.80;;;1.17;;
7737;SDS011;29398;45.328;5.558;2022-07-04T03:15:10;1.70;;;1.40;;
7737;SDS011;29398;45.328;5.558;2022-07-04T03:16:11;2.20;;;1.20;;
7737;SDS011;29398;45.328;5.558;2022-07-04T03:17:13;2.97;;;1.30;;
7737;SDS011;29398;45.328;5.558;2022-07-04T03:18:14;2.22;;;1.15;;
7737;SDS011;29398;45.328;5.558;2022-07-04T03:19:16;2.45;;;1.30;;
7737;SDS011;29398;45.328;5.558;2022-07-04T03:20:17;1.10;;;1.00;;
7737;SDS011;29398;45.328;5.558;2022-07-04T03:21:19;3.38;;;1.20;;
7737;SDS011;29398;45.328;5.558;2022-07-04T03:22:20;1.65;;;1.00;;
7737;SDS011;29398;45.328;5.558;2022-07-04T03:23:22;1.17;;;1.08;;
7737;SDS011;29398;45.328;5.558;2022-07-04T03:24:25;1.63;;;1.00;;
7737;SDS011;29398;45.328;5.558;2022-07-04T03:25:27;2.40;;;0.90;;
7737;SDS011;29398;45.328;5.558;2022-07-04T03:26:28;2.05;;;1.02;;
7737;SDS011;29398;45.328;5.558;2022-07-04T03:27:31;1.52;;;0.82;;
7737;SDS011;29398;45.328;5.558;2022-07-04T03:28:32;1.70;;;0.80;;
7737;SDS011;29398;45.328;5.558;2022-07-04T03:29:34;1.80;;;0.80;;
7737;SDS011;29398;45.328;5.558;2022-07-04T03:30:35;1.92;;;0.90;;
7737;SDS011;29398;45.328;5.558;2022-07-04T03:31:37;1.13;;;0.63;;
7737;SDS011;29398;45.328;5.558;2022-07-04T03:32:38;2.13;;;0.85;;
7737;SDS011;29398;45.328;5.558;2022-07-04T03:33:40;0.82;;;0.65;;
7737;SDS011;29398;45.328;5.558;2022-07-04T03:34:41;0.95;;;0.82;;
7737;SDS011;29398;45.328;5.558;2022-07-04T03:35:43;2.20;;;0.73;;
7737;SDS011;29398;45.328;5.558;2022-07-04T03:36:45;1.60;;;0.80;;
7737;SDS011;29398;45.328;5.558;2022-07-04T03:37:47;1.23;;;0.75;;
7737;SDS011;29398;45.328;5.558;2022-07-04T03:38:48;1.00;;;0.70;;
7737;SDS011;29398;45.328;5.558;2022-07-04T03:39:51;1.27;;;0.65;;
7737;SDS011;29398;45.328;5.558;2022-07-04T03:40:52;1.45;;;0.80;;
7737;SDS011;29398;45.328;5.558;2022-07-04T03:41:54;1.45;;;0.73;;
7737;SDS011;29398;45.328;5.558;2022-07-04T03:42:55;0.88;;;0.70;;
7737;SDS011;29398;45.328;5.558;2022-07-04T03:43:57;0.93;;;0.75;;
7737;SDS011;29398;45.328;5.558;2022-07-04T03:44:58;1.08;;;0.90;;
7737;SDS011;29398;45.328;5.558;2022-07-04T03:46:00;2.55;;;0.70;;
7737;SDS011;29398;45.328;5.558;2022-07-04T03:47:02;0.60;;;0.60;;
7737;SDS011;29398;45.328;5.558;2022-07-04T03:48:04;1.80;;;0.80;;
7737;SDS011;29398;45.328;5.558;2022-07-04T03:49:05;3.58;;;0.93;;
7737;SDS011;29398;45.328;5.558;2022-07-04T03:50:08;1.75;;;0.70;;
7737;SDS011;29398;45.328;5.558;2022-07-04T03:51:09;0.88;;;0.70;;
7737;SDS011;29398;45.328;5.558;2022-07-04T03:52:12;1.50;;;0.73;;
7737;SDS011;29398;45.328;5.558;2022-07-04T03:53:13;0.65;;;0.65;;
7737;SDS011;29398;45.328;5.558;2022-07-04T03:54:16;2.60;;;0.80;;
7737;SDS011;29398;45.328;5.558;2022-07-04T03:55:18;2.75;;;0.85;;
7737;SDS011;29398;45.328;5.558;2022-07-04T03:56:20;2.13;;;0.73;;
7737;SDS011;29398;45.328;5.558;2022-07-04T03:57:22;1.17;;;0.98;;
7737;SDS011;29398;45.328;5.558;2022-07-04T03:58:24;3.33;;;1.27;;
7737;SDS011;29398;45.328;5.558;2022-07-04T03:59:25;1.80;;;0.88;;
7737;SDS011;29398;45.328;5.558;2022-07-04T04:00:27;3.10;;;0.80;;
7737;SDS011;29398;45.328;5.558;2022-07-04T04:01:28;0.95;;;0.85;;
7737;SDS011;29398;45.328;5.558;2022-07-04T04:02:31;1.02;;;0.60;;
7737;SDS011;29398;45.328;5.558;2022-07-04T04:03:31;1.58;;;0.85;;
7737;SDS011;29398;45.328;5.558;2022-07-04T04:05:06;0.88;;;0.80;;
7737;SDS011;29398;45.328;5.558;2022-07-04T04:06:26;1.35;;;0.85;;
7737;SDS011;29398;45.328;5.558;2022-07-04T04:07:28;2.10;;;1.00;;
7737;SDS011;29398;45.328;5.558;2022-07-04T04:08:29;0.93;;;0.80;;
7737;SDS011;29398;45.328;5.558;2022-07-04T04:09:31;1.35;;;0.70;;
7737;SDS011;29398;45.328;5.558;2022-07-04T04:10:33;2.35;;;0.70;;
7737;SDS011;29398;45.328;5.558;2022-07-04T04:11:35;0.98;;;0.82;;
7737;SDS011;29398;45.328;5.558;2022-07-04T04:12:36;0.85;;;0.80;;
7737;SDS011;29398;45.328;5.558;2022-07-04T04:13:38;1.48;;;0.70;;
7737;SDS011;29398;45.328;5.558;2022-07-04T04:14:39;1.52;;;1.00;;
7737;SDS011;29398;45.328;5.558;2022-07-04T04:15:41;2.25;;;1.00;;
7737;SDS011;29398;45.328;5.558;2022-07-04T04:16:42;2.67;;;1.10;;
7737;SDS011;29398;45.328;5.558;2022-07-04T04:17:44;3.05;;;1.05;;
7737;SDS011;29398;45.328;5.558;2022-07-04T04:18:46;0.85;;;0.85;;
7737;SDS011;29398;45.328;5.558;2022-07-04T04:19:47;3.30;;;0.90;;
7737;SDS011;29398;45.328;5.558;2022-07-04T04:20:49;1.48;;;0.90;;
7737;SDS011;29398;45.328;5.558;2022-07-04T04:21:50;1.63;;;0.77;;
7737;SDS011;29398;45.328;5.558;2022-07-04T04:22:52;0.95;;;0.82;;
7737;SDS011;29398;45.328;5.558;2022-07-04T04:23:53;1.42;;;0.93;;
7737;SDS011;29398;45.328;5.558;2022-07-04T04:24:56;1.48;;;0.90;;
7737;SDS011;29398;45.328;5.558;2022-07-04T04:25:59;1.77;;;0.98;;
7737;SDS011;29398;45.328;5.558;2022-07-04T04:27:01;1.45;;;1.00;;
7737;SDS011;29398;45.328;5.558;2022-07-04T04:28:02;3.38;;;0.90;;
7737;SDS011;29398;45.328;5.558;2022-07-04T04:29:05;2.40;;;0.90;;
7737;SDS011;29398;45.328;5.558;2022-07-04T04:30:06;2.47;;;0.85;;
7737;SDS011;29398;45.328;5.558;2022-07-04T04:31:09;2.28;;;0.90;;
7737;SDS011;29398;45.328;5.558;2022-07-04T04:32:10;1.08;;;0.90;;
7737;SDS011;29398;45.328;5.558;2022-07-04T04:33:12;1.92;;;0.90;;
7737;SDS011;29398;45.328;5.558;2022-07-04T04:34:13;2.22;;;1.10;;
7737;SDS011;29398;45.328;5.558;2022-07-04T04:35:15;3.03;;;1.00;;
7737;SDS011;29398;45.328;5.558;2022-07-04T04:36:16;2.53;;;1.00;;
7737;SDS011;29398;45.328;5.558;2022-07-04T04:37:18;1.10;;;0.80;;
7737;SDS011;29398;45.328;5.558;2022-07-04T04:38:19;3.75;;;1.15;;
7737;SDS011;29398;45.328;5.558;2022-07-04T04:39:21;1.95;;;0.93;;
7737;SDS011;29398;45.328;5.558;2022-07-04T04:40:22;3.72;;;0.90;;
7737;SDS011;29398;45.328;5.558;2022-07-04T04:41:25;1.25;;;0.80;;
7737;SDS011;29398;45.328;5.558;2022-07-04T04:42:26;2.00;;;0.95;;
7737;SDS011;29398;45.328;5.558;2022-07-04T04:43:29;1.55;;;1.05;;
7737;SDS011;29398;45.328;5.558;2022-07-04T04:44:30;4.60;;;1.10;;
7737;SDS011;29398;45.328;5.558;2022-07-04T04:45:32;2.13;;;0.90;;
7737;SDS011;29398;45.328;5.558;2022-07-04T04:46:33;1.60;;;0.82;;
7737;SDS011;29398;45.328;5.558;2022-07-04T04:47:35;1.48;;;0.80;;
7737;SDS011;29398;45.328;5.558;2022-07-04T04:48:36;2.17;;;0.90;;
7737;SDS011;29398;45.328;5.558;2022-07-04T04:49:38;3.85;;;0.90;;
7737;SDS011;29398;45.328;5.558;2022-07-04T04:50:39;3.20;;;0.98;;
7737;SDS011;29398;45.328;5.558;2022-07-04T04:51:41;3.13;;;1.17;;
7737;SDS011;29398;45.328;5.558;2022-07-04T04:52:42;4.13;;;1.05;;
7737;SDS011;29398;45.328;5.558;2022-07-04T04:53:44;1.98;;;0.98;;
7737;SDS011;29398;45.328;5.558;2022-07-04T04:54:45;1.65;;;0.80;;
7737;SDS011;29398;45.328;5.558;2022-07-04T04:55:47;3.75;;;0.93;;
7737;SDS011;29398;45.328;5.558;2022-07-04T04:56:49;2.13;;;0.73;;
7737;SDS011;29398;45.328;5.558;2022-07-04T04:57:51;2.53;;;0.80;;
7737;SDS011;29398;45.328;5.558;2022-07-04T04:58:52;1.90;;;0.80;;
7737;SDS011;29398;45.328;5.558;2022-07-04T04:59:55;2.97;;;0.98;;
7737;SDS011;29398;45.328;5.558;2022-07-04T05:00:56;2.05;;;1.00;;
7737;SDS011;29398;45.328;5.558;2022-07-04T05:01:58;1.58;;;0.88;;
7737;SDS011;29398;45.328;5.558;2022-07-04T05:03:00;1.23;;;0.90;;
7737;SDS011;29398;45.328;5.558;2022-07-04T05:04:01;1.80;;;0.90;;
7737;SDS011;29398;45.328;5.558;2022-07-04T05:05:03;2.97;;;0.90;;
7737;SDS011;29398;45.328;5.558;2022-07-04T05:06:05;2.05;;;1.00;;
7737;SDS011;29398;45.328;5.558;2022-07-04T05:07:07;3.25;;;1.15;;
7737;SDS011;29398;45.328;5.558;2022-07-04T05:08:08;2.92;;;1.15;;
7737;SDS011;29398;45.328;5.558;2022-07-04T05:09:10;4.45;;;1.30;;
7737;SDS011;29398;45.328;5.558;2022-07-04T05:10:11;2.22;;;0.98;;
7737;SDS011;29398;45.328;5.558;2022-07-04T05:11:13;4.20;;;0.93;;
7737;SDS011;29398;45.328;5.558;2022-07-04T05:12:16;1.17;;;0.70;;
7737;SDS011;29398;45.328;5.558;2022-07-04T05:13:18;4.25;;;1.10;;
7737;SDS011;29398;45.328;5.558;2022-07-04T05:14:19;3.20;;;1.10;;
7737;SDS011;29398;45.328;5.558;2022-07-04T05:15:21;3.05;;;0.90;;
7737;SDS011;29398;45.328;5.558;2022-07-04T05:16:22;2.58;;;1.02;;
7737;SDS011;29398;45.328;5.558;2022-07-04T05:17:24;4.90;;;0.98;;
7737;SDS011;29398;45.328;5.558;2022-07-04T05:18:25;5.35;;;1.17;;
7737;SDS011;29398;45.328;5.558;2022-07-04T05:19:27;4.53;;;1.23;;
7737;SDS011;29398;45.328;5.558;2022-07-04T05:20:29;5.97;;;0.90;;
7737;SDS011;29398;45.328;5.558;2022-07-04T05:21:30;2.35;;;0.95;;
7737;SDS011;29398;45.328;5.558;2022-07-04T05:22:32;3.53;;;1.08;;
7737;SDS011;29398;45.328;5.558;2022-07-04T05:23:34;3.63;;;1.00;;
7737;SDS011;29398;45.328;5.558;2022-07-04T05:24:36;2.05;;;0.90;;
7737;SDS011;29398;45.328;5.558;2022-07-04T05:25:39;5.40;;;1.25;;
7737;SDS011;29398;45.328;5.558;2022-07-04T05:26:41;5.47;;;1.00;;
7737;SDS011;29398;45.328;5.558;2022-07-04T05:27:44;2.63;;;1.00;;
7737;SDS011;29398;45.328;5.558;2022-07-04T05:28:46;3.83;;;1.13;;
7737;SDS011;29398;45.328;5.558;2022-07-04T05:29:47;5.03;;;1.10;;
7737;SDS011;29398;45.328;5.558;2022-07-04T05:30:49;2.10;;;0.80;;
7737;SDS011;29398;45.328;5.558;2022-07-04T05:31:50;2.55;;;1.00;;
7737;SDS011;29398;45.328;5.558;2022-07-04T05:32:52;3.47;;;0.90;;
7737;SDS011;29398;45.328;5.558;2022-07-04T05:33:54;2.15;;;0.90;;
7737;SDS011;29398;45.328;5.558;2022-07-04T05:34:56;1.63;;;0.75;;
7737;SDS011;29398;45.328;5.558;2022-07-04T05:35:58;1.58;;;0.95;;
7737;SDS011;29398;45.328;5.558;2022-07-04T05:37:00;3.78;;;1.50;;
7737;SDS011;29398;45.328;5.558;2022-07-04T05:38:01;2.10;;;1.20;;
7737;SDS011;29398;45.328;5.558;2022-07-04T05:39:03;2.00;;;1.50;;
7737;SDS011;29398;45.328;5.558;2022-07-04T05:40:05;2.53;;;1.70;;
7737;SDS011;29398;45.328;5.558;2022-07-04T05:41:07;2.33;;;1.83;;
7737;SDS011;29398;45.328;5.558;2022-07-04T05:42:09;3.50;;;1.83;;
7737;SDS011;29398;45.328;5.558;2022-07-04T05:43:12;4.53;;;1.83;;
7737;SDS011;29398;45.328;5.558;2022-07-04T05:44:14;3.22;;;1.55;;
7737;SDS011;29398;45.328;5.558;2022-07-04T05:45:15;2.42;;;1.65;;
7737;SDS011;29398;45.328;5.558;2022-07-04T05:46:17;2.05;;;1.30;;
7737;SDS011;29398;45.328;5.558;2022-07-04T05:47:18;2.28;;;1.55;;
7737;SDS011;29398;45.328;5.558;2022-07-04T05:48:23;3.30;;;1.90;;
7737;SDS011;29398;45.328;5.558;2022-07-04T05:49:24;5.93;;;1.50;;
7737;SDS011;29398;45.328;5.558;2022-07-04T05:50:26;2.33;;;1.50;;
7737;SDS011;29398;45.328;5.558;2022-07-04T05:51:28;1.48;;;1.35;;
7737;SDS011;29398;45.328;5.558;2022-07-04T05:52:30;3.42;;;1.58;;
7737;SDS011;29398;45.328;5.558;2022-07-04T05:53:31;2.22;;;1.35;;
7737;SDS011;29398;45.328;5.558;2022-07-04T05:54:33;1.15;;;1.02;;
7737;SDS011;29398;45.328;5.558;2022-07-04T05:55:34;2.97;;;1.40;;
7737;SDS011;29398;45.328;5.558;2022-07-04T05:56:36;3.72;;;1.30;;
7737;SDS011;29398;45.328;5.558;2022-07-04T05:57:38;1.70;;;1.10;;
7737;SDS011;29398;45.328;5.558;2022-07-04T05:58:41;2.08;;;1.17;;
7737;SDS011;29398;45.328;5.558;2022-07-04T05:59:43;2.03;;;1.40;;
7737;SDS011;29398;45.328;5.558;2022-07-04T06:00:45;1.83;;;1.05;;
7737;SDS011;29398;45.328;5.558;2022-07-04T06:01:47;4.95;;;1.77;;
7737;SDS011;29398;45.328;5.558;2022-07-04T06:02:48;2.20;;;1.10;;
7737;SDS011;29398;45.328;5.558;2022-07-04T06:03:50;2.42;;;1.00;;
7737;SDS011;29398;45.328;5.558;2022-07-04T06:04:52;3.85;;;1.17;;
7737;SDS011;29398;45.328;5.558;2022-07-04T06:05:53;1.98;;;1.30;;
7737;SDS011;29398;45.328;5.558;2022-07-04T06:06:55;2.17;;;1.30;;
7737;SDS011;29398;45.328;5.558;2022-07-04T06:07:57;1.63;;;1.20;;
7737;SDS011;29398;45.328;5.558;2022-07-04T06:08:59;1.60;;;1.05;;
7737;SDS011;29398;45.328;5.558;2022-07-04T06:10:00;2.20;;;1.10;;
7737;SDS011;29398;45.328;5.558;2022-07-04T06:11:03;2.33;;;1.20;;
7737;SDS011;29398;45.328;5.558;2022-07-04T06:12:06;1.90;;;1.00;;
7737;SDS011;29398;45.328;5.558;2022-07-04T06:13:09;3.15;;;1.08;;
7737;SDS011;29398;45.328;5.558;2022-07-04T06:14:12;1.90;;;1.08;;
7737;SDS011;29398;45.328;5.558;2022-07-04T06:15:13;0.95;;;0.88;;
7737;SDS011;29398;45.328;5.558;2022-07-04T06:16:16;1.20;;;0.90;;
7737;SDS011;29398;45.328;5.558;2022-07-04T06:17:17;2.70;;;1.30;;
7737;SDS011;29398;45.328;5.558;2022-07-04T06:18:20;0.80;;;0.80;;
7737;SDS011;29398;45.328;5.558;2022-07-04T06:19:22;2.30;;;1.38;;
7737;SDS011;29398;45.328;5.558;2022-07-04T06:20:23;1.67;;;1.00;;
7737;SDS011;29398;45.328;5.558;2022-07-04T06:21:25;0.70;;;0.70;;
7737;SDS011;29398;45.328;5.558;2022-07-04T06:22:26;1.17;;;0.90;;
7737;SDS011;29398;45.328;5.558;2022-07-04T06:23:28;1.40;;;0.90;;